sensor_id;sensor_type;location;lat;lon;timestamp;pressure;altitude;pressure_sealevel;temperature;humidity
45941;BME280;31858;46.008;8.978;2024-02-16T00:08:50;94917.41;;;7.36;100.00
45941;BME280;31858;46.008;8.978;2024-02-16T00:18:53;94919.69;;;7.37;100.00
45941;BME280;31858;46.008;8.978;2024-02-16T00:28:54;94913.94;;;7.19;100.00
45941;BME280;31858;46.008;8.978;2024-02-16T00:38:57;94904.53;;;7.06;100.00
45941;BME280;31858;46.008;8.978;2024-02-16T00:48:59;94908.34;;;6.93;100.00
45941;BME280;31858;46.008;8.978;2024-02-16T00:59:02;94907.34;;;7.13;100.00
45941;BME280;31858;46.008;8.978;2024-02-16T01:09:03;94894.16;;;7.01;100.00
45941;BME280;31858;46.008;8.978;2024-02-16T01:19:06;94902.00;;;6.82;100.00
45941;BME280;31858;46.008;8.978;2024-02-16T01:29:09;94899.78;;;6.84;100.00
45941;BME280;31858;46.008;8.978;2024-02-16T01:39:12;94894.38;;;6.80;100.00
45941;BME280;31858;46.008;8.978;2024-02-16T01:49:14;94882.81;;;6.73;100.00
45941;BME280;31858;46.008;8.978;2024-02-16T01:59:17;94872.72;;;6.63;100.00
45941;BME280;31858;46.008;8.978;2024-02-16T02:09:19;94869.19;;;6.59;100.00
45941;BME280;31858;46.008;8.978;2024-02-16T02:19:22;94873.03;;;6.45;100.00
45941;BME280;31858;46.008;8.978;2024-02-16T02:29:25;94863.56;;;6.60;100.00
45941;BME280;31858;46.008;8.978;2024-02-16T02:39:27;94848.25;;;6.81;100.00
45941;BME280;31858;46.008;8.978;2024-02-16T02:49:30;94843.84;;;6.58;100.00
45941;BME280;31858;46.008;8.978;2024-02-16T02:59:33;94839.47;;;6.93;100.00
45941;BME280;31858;46.008;8.978;2024-02-16T03:09:36;94834.28;;;6.69;100.00
45941;BME280;31858;46.008;8.978;2024-02-16T03:19:37;94836.34;;;6.75;100.00
45941;BME280;31858;46.008;8.978;2024-02-16T03:29:40;94833.44;;;6.65;100.00
45941;BME280;31858;46.008;8.978;2024-02-16T03:39:42;94831.28;;;6.54;100.00
45941;BME280;31858;46.008;8.978;2024-02-16T03:49:45;94825.53;;;6.52;100.00
45941;BME280;31858;46.008;8.978;2024-02-16T03:59:46;94825.75;;;6.75;100.00
45941;BME280;31858;46.008;8.978;2024-02-16T04:09:49;94818.41;;;6.69;100.00
45941;BME280;31858;46.008;8.978;2024-02-16T04:19:51;94812.00;;;6.70;100.00
45941;BME280;31858;46.008;8.978;2024-02-16T04:29:54;94805.06;;;6.49;100.00
45941;BME280;31858;46.008;8.978;2024-02-16T04:39:55;94809.06;;;6.59;100.00
45941;BME280;31858;46.008;8.978;2024-02-16T04:49:58;94807.56;;;6.74;100.00
45941;BME280;31858;46.008;8.978;2024-02-16T05:00:00;94802.69;;;6.76;100.00
45941;BME280;31858;46.008;8.978;2024-02-16T05:10:07;94805.66;;;6.59;100.00
45941;BME280;31858;46.008;8.978;2024-02-16T05:20:10;94807.91;;;6.72;100.00
45941;BME280;31858;46.008;8.978;2024-02-16T05:30:16;94799.25;;;6.60;100.00
45941;BME280;31858;46.008;8.978;2024-02-16T05:40:19;94802.25;;;6.58;100.00
45941;BME280;31858;46.008;8.978;2024-02-16T05:50:24;94799.50;;;6.54;100.00
45941;BME280;31858;46.008;8.978;2024-02-16T06:00:25;94801.59;;;6.33;100.00
45941;BME280;31858;46.008;8.978;2024-02-16T06:10:29;94794.16;;;6.23;100.00
45941;BME280;31858;46.008;8.978;2024-02-16T06:20:31;94811.69;;;6.15;100.00
45941;BME280;31858;46.008;8.978;2024-02-16T06:30:34;94823.28;;;6.11;100.00
45941;BME280;31858;46.008;8.978;2024-02-16T06:40:36;94830.13;;;6.12;100.00
45941;BME280;31858;46.008;8.978;2024-02-16T06:50:39;94829.94;;;5.93;100.00
45941;BME280;31858;46.008;8.978;2024-02-16T07:00:40;94842.06;;;5.94;100.00
45941;BME280;31858;46.008;8.978;2024-02-16T07:10:43;94847.13;;;5.99;100.00
45941;BME280;31858;46.008;8.978;2024-02-16T07:20:47;94844.81;;;5.97;100.00
45941;BME280;31858;46.008;8.978;2024-02-16T07:30:50;94853.94;;;5.87;100.00
45941;BME280;31858;46.008;8.978;2024-02-16T07:40:51;94850.53;;;5.87;100.00
45941;BME280;31858;46.008;8.978;2024-02-16T07:50:54;94848.13;;;5.94;100.00
45941;BME280;31858;46.008;8.978;2024-02-16T08:00:58;94836.53;;;6.11;100.00
45941;BME280;31858;46.008;8.978;2024-02-16T08:11:01;94853.03;;;6.20;100.00
45941;BME280;31858;46.008;8.978;2024-02-16T08:21:03;94855.41;;;6.37;100.00
45941;BME280;31858;46.008;8.978;2024-02-16T08:31:05;94849.56;;;6.60;100.00
45941;BME280;31858;46.008;8.978;2024-02-16T08:41:08;94851.75;;;6.42;100.00
45941;BME280;31858;46.008;8.978;2024-02-16T08:51:11;94850.38;;;6.76;100.00
45941;BME280;31858;46.008;8.978;2024-02-16T09:01:13;94858.94;;;6.57;100.00
45941;BME280;31858;46.008;8.978;2024-02-16T09:11:17;94854.38;;;6.70;100.00
45941;BME280;31858;46.008;8.978;2024-02-16T09:21:19;94864.13;;;6.81;100.00
45941;BME280;31858;46.008;8.978;2024-02-16T09:31:22;94877.31;;;6.94;100.00
45941;BME280;31858;46.008;8.978;2024-02-16T09:41:23;94888.09;;;7.01;100.00
45941;BME280;31858;46.008;8.978;2024-02-16T09:51:27;94885.28;;;7.09;100.00
45941;BME280;31858;46.008;8.978;2024-02-16T10:01:29;94887.78;;;7.18;100.00
45941;BME280;31858;46.008;8.978;2024-02-16T10:11:32;94891.13;;;7.31;100.00
45941;BME280;31858;46.008;8.978;2024-02-16T10:21:34;94899.44;;;7.45;100.00
45941;BME280;31858;46.008;8.978;2024-02-16T10:31:37;94895.94;;;7.57;100.00
45941;BME280;31858;46.008;8.978;2024-02-16T10:41:40;94898.94;;;7.71;100.00
45941;BME280;31858;46.008;8.978;2024-02-16T10:51:45;94907.63;;;7.87;100.00
45941;BME280;31858;46.008;8.978;2024-02-16T11:01:47;94904.94;;;8.03;100.00
45941;BME280;31858;46.008;8.978;2024-02-16T11:11:53;94903.19;;;8.26;100.00
45941;BME280;31858;46.008;8.978;2024-02-16T11:21:56;94888.00;;;8.42;100.00
45941;BME280;31858;46.008;8.978;2024-02-16T11:32:02;94874.31;;;8.60;100.00
45941;BME280;31858;46.008;8.978;2024-02-16T11:42:05;94868.78;;;8.68;100.00
45941;BME280;31858;46.008;8.978;2024-02-16T11:52:08;94867.09;;;8.79;100.00
45941;BME280;31858;46.008;8.978;2024-02-16T12:02:17;94855.81;;;9.05;100.00
45941;BME280;31858;46.008;8.978;2024-02-16T12:12:22;94853.91;;;9.29;100.00
45941;BME280;31858;46.008;8.978;2024-02-16T12:22:23;94852.53;;;9.38;100.00
45941;BME280;31858;46.008;8.978;2024-02-16T12:32:27;94844.31;;;9.47;100.00
45941;BME280;31858;46.008;8.978;2024-02-16T12:42:29;94831.25;;;9.61;100.00
45941;BME280;31858;46.008;8.978;2024-02-16T12:52:32;94828.44;;;9.77;100.00
45941;BME280;31858;46.008;8.978;2024-02-16T13:02:35;94819.13;;;9.90;100.00
45941;BME280;31858;46.008;8.978;2024-02-16T13:12:38;94820.41;;;10.00;100.00
45941;BME280;31858;46.008;8.978;2024-02-16T13:22:40;94810.06;;;10.21;100.00
45941;BME280;31858;46.008;8.978;2024-02-16T13:32:44;94810.41;;;10.53;100.00
45941;BME280;31858;46.008;8.978;2024-02-16T13:42:45;94812.19;;;10.75;97.93
45941;BME280;31858;46.008;8.978;2024-02-16T13:52:49;94807.47;;;10.62;98.76
45941;BME280;31858;46.008;8.978;2024-02-16T14:02:51;94811.69;;;10.29;95.34
45941;BME280;31858;46.008;8.978;2024-02-16T14:12:54;94803.19;;;10.20;95.44
45941;BME280;31858;46.008;8.978;2024-02-16T14:22:56;94806.09;;;10.11;100.00
45941;BME280;31858;46.008;8.978;2024-02-16T14:32:59;94811.91;;;9.91;100.00
45941;BME280;31858;46.008;8.978;2024-02-16T14:43:01;94809.88;;;9.80;100.00
45941;BME280;31858;46.008;8.978;2024-02-16T14:53:04;94811.00;;;9.79;100.00
45941;BME280;31858;46.008;8.978;2024-02-16T15:03:06;94806.19;;;9.89;100.00
45941;BME280;31858;46.008;8.978;2024-02-16T15:13:10;94793.59;;;9.86;100.00
45941;BME280;31858;46.008;8.978;2024-02-16T15:23:11;94804.19;;;9.82;100.00
45941;BME280;31858;46.008;8.978;2024-02-16T15:33:14;94814.78;;;9.78;100.00
45941;BME280;31858;46.008;8.978;2024-02-16T15:43:16;94816.16;;;9.69;100.00
45941;BME280;31858;46.008;8.978;2024-02-16T15:53:19;94828.94;;;9.60;100.00
45941;BME280;31858;46.008;8.978;2024-02-16T16:03:21;94832.16;;;9.46;100.00
45941;BME280;31858;46.008;8.978;2024-02-16T16:13:25;94833.16;;;9.38;100.00
45941;BME280;31858;46.008;8.978;2024-02-16T16:23:26;94840.78;;;9.39;100.00
45941;BME280;31858;46.008;8.978;2024-02-16T16:33:30;94840.78;;;9.39;100.00
45941;BME280;31858;46.008;8.978;2024-02-16T16:43:32;94848.94;;;9.50;100.00
45941;BME280;31858;46.008;8.978;2024-02-16T16:53:35;94858.28;;;9.40;100.00
45941;BME280;31858;46.008;8.978;2024-02-16T17:03:36;94865.19;;;9.22;100.00
45941;BME280;31858;46.008;8.978;2024-02-16T17:13:39;94883.56;;;9.31;100.00
45941;BME280;31858;46.008;8.978;2024-02-16T17:23:41;94879.13;;;9.15;100.00
45941;BME280;31858;46.008;8.978;2024-02-16T17:33:45;94897.22;;;9.06;100.00
45941;BME280;31858;46.008;8.978;2024-02-16T17:43:47;94913.19;;;8.87;100.00
45941;BME280;31858;46.008;8.978;2024-02-16T17:53:50;94919.47;;;8.79;100.00
45941;BME280;31858;46.008;8.978;2024-02-16T18:03:52;94929.25;;;8.94;100.00
45941;BME280;31858;46.008;8.978;2024-02-16T18:13:55;94929.59;;;8.93;100.00
45941;BME280;31858;46.008;8.978;2024-02-16T18:23:57;94944.66;;;8.85;100.00
45941;BME280;31858;46.008;8.978;2024-02-16T18:34:00;94945.41;;;8.86;100.00
45941;BME280;31858;46.008;8.978;2024-02-16T18:44:03;94958.06;;;8.73;100.00
45941;BME280;31858;46.008;8.978;2024-02-16T18:54:05;94947.38;;;8.69;100.00
45941;BME280;31858;46.008;8.978;2024-02-16T19:04:09;94948.25;;;8.58;100.00
45941;BME280;31858;46.008;8.978;2024-02-16T19:14:12;94953.19;;;8.40;100.00
45941;BME280;31858;46.008;8.978;2024-02-16T19:24:14;94966.00;;;8.54;100.00
45941;BME280;31858;46.008;8.978;2024-02-16T19:34:17;94965.59;;;8.52;100.00
45941;BME280;31858;46.008;8.978;2024-02-16T19:44:18;94978.09;;;8.51;100.00
45941;BME280;31858;46.008;8.978;2024-02-16T19:54:22;94983.59;;;8.42;100.00
45941;BME280;31858;46.008;8.978;2024-02-16T20:04:24;94989.91;;;8.54;100.00
45941;BME280;31858;46.008;8.978;2024-02-16T20:14:26;94999.06;;;8.56;100.00
45941;BME280;31858;46.008;8.978;2024-02-16T20:24:28;94999.09;;;8.40;100.00
45941;BME280;31858;46.008;8.978;2024-02-16T20:34:31;95003.56;;;8.36;100.00
45941;BME280;31858;46.008;8.978;2024-02-16T20:44:32;95014.53;;;8.35;100.00
45941;BME280;31858;46.008;8.978;2024-02-16T20:54:36;95011.59;;;8.40;100.00
45941;BME280;31858;46.008;8.978;2024-02-16T21:04:37;95008.19;;;8.39;100.00
45941;BME280;31858;46.008;8.978;2024-02-16T21:14:41;95010.31;;;8.18;100.00
45941;BME280;31858;46.008;8.978;2024-02-16T21:24:42;95016.81;;;8.21;100.00
45941;BME280;31858;46.008;8.978;2024-02-16T21:34:45;95017.00;;;7.96;100.00
45941;BME280;31858;46.008;8.978;2024-02-16T21:44:48;95018.63;;;8.01;100.00
45941;BME280;31858;46.008;8.978;2024-02-16T21:54:51;95026.50;;;8.13;100.00
45941;BME280;31858;46.008;8.978;2024-02-16T22:04:52;95030.09;;;8.05;100.00
45941;BME280;31858;46.008;8.978;2024-02-16T22:14:55;95031.72;;;7.94;100.00
45941;BME280;31858;46.008;8.978;2024-02-16T22:24:57;95040.19;;;7.83;100.00
45941;BME280;31858;46.008;8.978;2024-02-16T22:34:59;95036.59;;;7.92;100.00
45941;BME280;31858;46.008;8.978;2024-02-16T22:45:01;95046.44;;;7.91;100.00
45941;BME280;31858;46.008;8.978;2024-02-16T22:55:05;95046.09;;;7.93;100.00
45941;BME280;31858;46.008;8.978;2024-02-16T23:05:07;95047.28;;;7.95;100.00
45941;BME280;31858;46.008;8.978;2024-02-16T23:15:11;95056.81;;;8.12;100.00
45941;BME280;31858;46.008;8.978;2024-02-16T23:25:12;95061.25;;;8.08;100.00
45941;BME280;31858;46.008;8.978;2024-02-16T23:35:15;95068.09;;;7.93;100.00
45941;BME280;31858;46.008;8.978;2024-02-16T23:45:17;95075.88;;;7.86;100.00
45941;BME280;31858;46.008;8.978;2024-02-16T23:55:20;95085.13;;;7.76;100.00
